Time;durP1;ratioP1;P1;durP2;ratioP2;P2;SDS_P1;SDS_P2;PMS_P1;PMS_P2;Temp;Humidity;BMP_temperature;BMP_pressure;BME280_temperature;BME280_humidity;BME280_pressure;Samples;Min_cycle;Max_cycle;Signal;HPM_P1;HPM_P2
2024/01/07 00:00:15;;;;;;;0.10;0.10;;;0.40;99.90;;;;;;21074921;28;20043;-59
2024/01/07 00:10:17;;;;;;;0.45;0.00;;;0.40;99.90;;;;;;21073982;28;20036;-61
2024/01/07 00:20:19;;;;;;;0.00;0.00;;;0.30;99.90;;;;;;21072902;28;20739;-61
2024/01/07 00:30:21;;;;;;;0.00;0.00;;;0.30;99.90;;;;;;21072347;28;20493;-60
2024/01/07 00:40:26;;;;;;;0.00;0.00;;;0.30;99.90;;;;;;21053187;28;20032;-60
2024/01/07 00:50:27;;;;;;;0.00;0.00;;;0.30;99.90;;;;;;21070124;28;20020;-59
2024/01/07 01:00:29;;;;;;;2.65;0.00;;;0.30;99.90;;;;;;21068939;28;20036;-60
2024/01/07 01:10:31;;;;;;;0.00;0.00;;;0.30;99.90;;;;;;21069133;28;20415;-59
2024/01/07 01:20:32;;;;;;;0.00;0.00;;;0.30;99.90;;;;;;21050434;28;20048;-60
2024/01/07 01:30:34;;;;;;;0.00;0.00;;;0.20;99.90;;;;;;21049562;28;20032;-60
2024/01/07 01:40:36;;;;;;;0.00;0.00;;;0.20;99.90;;;;;;21049146;28;20039;-60
2024/01/07 01:50:38;;;;;;;0.00;0.00;;;0.20;99.90;;;;;;21066997;28;20035;-57
2024/01/07 02:00:40;;;;;;;0.00;0.00;;;0.20;99.90;;;;;;21066475;28;20036;-59
2024/01/07 02:10:42;;;;;;;0.00;0.00;;;0.20;99.90;;;;;;21080222;28;20028;-58
2024/01/07 02:20:44;;;;;;;0.00;0.00;;;0.30;99.90;;;;;;21083038;28;20101;-59
2024/01/07 02:30:46;;;;;;;0.35;0.10;;;0.20;99.90;;;;;;20996502;28;20029;-59
2024/01/07 02:40:47;;;;;;;0.00;0.00;;;0.20;99.90;;;;;;21032659;28;20081;-60
2024/01/07 02:50:49;;;;;;;0.10;0.00;;;0.10;99.90;;;;;;21080342;28;20032;-47
2024/01/07 03:00:51;;;;;;;0.00;0.00;;;0.10;99.90;;;;;;21079355;28;20035;-60
2024/01/07 03:10:53;;;;;;;0.00;0.00;;;0.10;99.90;;;;;;21077082;28;20062;-61
2024/01/07 03:20:55;;;;;;;0.08;0.00;;;0.10;99.90;;;;;;21076293;28;20097;-59
2024/01/07 03:30:57;;;;;;;0.00;0.00;;;0.10;99.90;;;;;;21074978;28;20432;-59
2024/01/07 03:40:58;;;;;;;0.00;0.00;;;0.10;99.90;;;;;;21076410;28;20097;-60
2024/01/07 03:51:00;;;;;;;0.00;0.00;;;0.20;99.90;;;;;;21075634;28;20043;-59
2024/01/07 04:01:02;;;;;;;0.00;0.00;;;0.20;99.90;;;;;;21074513;28;20043;-58
2024/01/07 04:11:06;;;;;;;0.00;0.00;;;0.20;99.90;;;;;;21073788;28;20032;-49
2024/01/07 04:21:14;;;;;;;0.00;0.00;;;0.10;99.90;;;;;;21071393;28;20052;-60
2024/01/07 04:31:16;;;;;;;0.00;0.00;;;0.00;99.90;;;;;;21071551;28;20853;-60
2024/01/07 04:41:18;;;;;;;0.10;0.00;;;0.00;99.90;;;;;;21071327;28;20032;-59
2024/01/07 04:51:19;;;;;;;1.02;0.00;;;0.00;99.90;;;;;;21069184;28;20028;-60
2024/01/07 05:01:21;;;;;;;0.10;0.00;;;0.00;99.90;;;;;;21069820;28;20043;-58
2024/01/07 05:11:24;;;;;;;0.00;0.00;;;0.00;99.90;;;;;;21063754;28;20039;-59
2024/01/07 05:21:26;;;;;;;0.73;0.17;;;0.00;99.90;;;;;;21068606;28;20043;-60
2024/01/07 05:31:30;;;;;;;0.00;0.00;;;0.00;99.90;;;;;;21067707;28;20558;-60
2024/01/07 05:41:38;;;;;;;0.25;0.00;;;-0.10;99.90;;;;;;21066513;28;20036;-60
2024/01/07 05:51:41;;;;;;;0.10;0.00;;;-0.10;99.90;;;;;;21060445;28;20028;-61
2024/01/07 06:01:43;;;;;;;0.00;0.00;;;0.00;99.90;;;;;;21064243;28;20062;-60
2024/01/07 06:11:44;;;;;;;0.00;0.00;;;0.00;99.90;;;;;;21061932;28;20028;-60
2024/01/07 06:21:46;;;;;;;0.10;0.00;;;0.10;99.90;;;;;;21061352;28;20098;-60
2024/01/07 06:31:49;;;;;;;0.00;0.00;;;0.00;99.90;;;;;;21060154;28;20481;-60
2024/01/07 06:41:53;;;;;;;0.00;0.00;;;0.00;99.90;;;;;;21042786;28;20128;-60
2024/01/07 06:51:55;;;;;;;0.20;0.10;;;0.10;99.90;;;;;;21047128;28;20043;-60
2024/01/07 07:01:57;;;;;;;0.17;0.00;;;-0.10;99.90;;;;;;21077189;28;20024;-57
2024/01/07 07:11:59;;;;;;;0.00;0.00;;;0.00;99.90;;;;;;21075064;28;20028;-60
2024/01/07 07:22:01;;;;;;;0.40;0.00;;;0.00;99.90;;;;;;21073520;28;20044;-60
2024/01/07 07:32:03;;;;;;;0.00;0.00;;;0.00;99.90;;;;;;21073329;28;20028;-60
2024/01/07 07:42:07;;;;;;;0.32;0.10;;;0.10;99.90;;;;;;21068897;28;20058;-59
2024/01/07 07:52:09;;;;;;;0.00;0.00;;;0.20;99.90;;;;;;21071841;28;20482;-60
2024/01/07 08:02:12;;;;;;;0.00;0.00;;;0.20;99.90;;;;;;21069426;28;20028;-59
2024/01/07 08:12:14;;;;;;;0.10;0.00;;;0.20;99.90;;;;;;21069162;28;20059;-59
2024/01/07 08:22:15;;;;;;;0.10;0.00;;;0.20;99.90;;;;;;21049747;28;20048;-58
2024/01/07 08:32:17;;;;;;;0.00;0.00;;;0.20;99.90;;;;;;21068610;28;20161;-57
2024/01/07 08:42:19;;;;;;;0.08;0.00;;;0.30;99.90;;;;;;21066321;28;20036;-60
2024/01/07 08:52:20;;;;;;;0.40;0.20;;;0.30;99.90;;;;;;21062752;28;20081;-60
2024/01/07 09:02:26;;;;;;;0.10;0.00;;;0.50;99.90;;;;;;21062001;28;20439;-60
2024/01/07 09:12:29;;;;;;;0.00;0.00;;;0.70;99.90;;;;;;21065937;28;20040;-51
2024/01/07 09:22:30;;;;;;;0.10;0.00;;;0.90;99.90;;;;;;21044420;28;20637;-55
2024/01/07 09:32:32;;;;;;;0.30;0.10;;;1.30;99.90;;;;;;21063647;28;20028;-56
2024/01/07 09:42:35;;;;;;;0.10;0.00;;;1.10;99.90;;;;;;21061736;28;20044;-57
2024/01/07 09:52:43;;;;;;;0.73;0.00;;;1.00;99.90;;;;;;21062592;28;20102;-59
2024/01/07 10:02:45;;;;;;;0.20;0.00;;;1.20;99.90;;;;;;21062071;28;20435;-61
2024/01/07 10:12:47;;;;;;;0.13;0.10;;;1.10;99.90;;;;;;21061609;28;20032;-61
2024/01/07 10:22:52;;;;;;;0.22;0.10;;;1.40;99.90;;;;;;21057543;28;20097;-61
2024/01/07 10:32:59;;;;;;;0.20;0.00;;;1.40;99.90;;;;;;21079337;28;20028;-60
2024/01/07 10:43:02;;;;;;;0.38;0.20;;;1.30;99.90;;;;;;21075160;28;20097;-60
2024/01/07 10:53:07;;;;;;;0.38;0.20;;;1.00;99.90;;;;;;21076169;28;20093;-60
2024/01/07 11:03:27;;;;;;;0.30;0.03;;;0.90;99.90;;;;;;21054819;28;20435;-61
2024/01/07 11:13:38;;;;;;;0.22;0.05;;;1.10;99.90;;;;;;21073175;28;20116;-59
2024/01/07 11:23:46;;;;;;;1.07;0.20;;;1.20;99.90;;;;;;21071923;28;20406;-59
2024/01/07 11:33:50;;;;;;;0.20;0.10;;;1.10;99.90;;;;;;21048679;28;20068;-59
2024/01/07 11:43:58;;;;;;;0.38;0.20;;;1.20;99.90;;;;;;21051343;28;20058;-59
2024/01/07 11:54:01;;;;;;;0.10;0.10;;;1.20;99.90;;;;;;21070130;28;20028;-60
2024/01/07 12:04:04;;;;;;;0.10;0.00;;;1.20;99.90;;;;;;21070743;28;20073;-60
2024/01/07 12:14:06;;;;;;;0.30;0.10;;;1.10;99.90;;;;;;21069637;28;20035;-61
2024/01/07 12:24:08;;;;;;;0.40;0.20;;;1.10;99.90;;;;;;21068250;28;20044;-60
2024/01/07 12:34:10;;;;;;;0.10;0.05;;;0.90;99.90;;;;;;21049521;28;20125;-60
2024/01/07 12:44:11;;;;;;;0.60;0.20;;;1.00;99.90;;;;;;21067067;28;20105;-60
2024/01/07 12:54:16;;;;;;;3.80;0.25;;;1.40;99.90;;;;;;21065834;28;20081;-61
2024/01/07 13:04:19;;;;;;;0.20;0.10;;;1.80;99.90;;;;;;21064760;28;20097;-61
2024/01/07 13:14:21;;;;;;;0.63;0.20;;;1.80;99.90;;;;;;21062448;28;20049;-61
2024/01/07 13:24:22;;;;;;;1.50;0.30;;;2.20;99.90;;;;;;21062660;28;20077;-60
2024/01/07 13:34:24;;;;;;;0.20;0.10;;;2.20;99.90;;;;;;21062911;28;20101;-60
2024/01/07 13:44:26;;;;;;;0.10;0.10;;;2.20;99.90;;;;;;21063577;28;20043;-61
2024/01/07 13:54:31;;;;;;;0.15;0.08;;;2.10;99.90;;;;;;21040178;28;20032;-61
2024/01/07 14:04:33;;;;;;;0.10;0.10;;;2.30;99.90;;;;;;21061286;28;20028;-62
2024/01/07 14:14:35;;;;;;;0.68;0.10;;;2.30;99.90;;;;;;21060196;28;20040;-63
2024/01/07 14:24:39;;;;;;;1.48;0.10;;;2.40;99.90;;;;;;21060430;28;20044;-57
2024/01/07 14:34:41;;;;;;;0.30;0.10;;;2.30;99.90;;;;;;21060864;28;20040;-54
2024/01/07 14:44:43;;;;;;;0.30;0.10;;;2.10;99.90;;;;;;21061981;28;20040;-61
2024/01/07 14:54:45;;;;;;;0.30;0.10;;;2.00;99.90;;;;;;21058755;28;20047;-61
2024/01/07 15:04:47;;;;;;;0.70;0.20;;;1.90;99.90;;;;;;21040116;28;20086;-61
2024/01/07 15:14:48;;;;;;;0.13;0.10;;;1.60;99.90;;;;;;21064777;28;20032;-61
2024/01/07 15:24:50;;;;;;;0.28;0.10;;;1.50;99.90;;;;;;21072291;28;20040;-61
2024/01/07 15:34:56;;;;;;;0.30;0.10;;;1.50;99.90;;;;;;21036134;28;20028;-47
2024/01/07 15:45:01;;;;;;;1.10;0.63;;;1.40;99.90;;;;;;21068919;28;20062;-60
2024/01/07 15:55:05;;;;;;;0.13;0.00;;;1.30;99.90;;;;;;21070373;28;20093;-60
2024/01/07 16:05:07;;;;;;;0.20;0.10;;;1.30;99.90;;;;;;21067179;28;20120;-60
2024/01/07 16:15:09;;;;;;;0.10;0.10;;;1.10;99.90;;;;;;21069251;28;20036;-61
2024/01/07 16:25:11;;;;;;;0.30;0.10;;;1.20;99.90;;;;;;21070127;28;20444;-60
2024/01/07 16:35:13;;;;;;;0.20;0.10;;;1.20;99.90;;;;;;21072522;28;20028;-61
2024/01/07 16:45:15;;;;;;;0.30;0.10;;;1.30;99.90;;;;;;21071610;28;20048;-60
2024/01/07 16:55:16;;;;;;;0.45;0.10;;;1.40;99.90;;;;;;21071066;28;20032;-60
2024/01/07 17:05:18;;;;;;;0.30;0.20;;;1.30;99.90;;;;;;21070397;28;20123;-60
2024/01/07 17:15:20;;;;;;;1.05;0.10;;;1.30;99.90;;;;;;21069584;28;20428;-60
2024/01/07 17:25:23;;;;;;;0.40;0.20;;;1.20;99.90;;;;;;20985089;28;20049;-61
2024/01/07 17:35:26;;;;;;;0.30;0.10;;;1.10;99.90;;;;;;20965457;28;20094;-60
2024/01/07 17:45:28;;;;;;;1.95;0.20;;;1.00;99.90;;;;;;20983723;28;20070;-60
2024/01/07 17:55:30;;;;;;;0.70;0.20;;;1.00;99.90;;;;;;20983338;28;20033;-60
2024/01/07 18:05:34;;;;;;;0.28;0.20;;;1.10;99.90;;;;;;20983500;28;20063;-60
2024/01/07 18:15:36;;;;;;;0.57;0.22;;;1.00;99.90;;;;;;20984653;28;20032;-60
2024/01/07 18:25:38;;;;;;;0.60;0.13;;;1.00;99.90;;;;;;21065675;28;20500;-60
2024/01/07 18:35:41;;;;;;;1.65;0.20;;;1.00;99.90;;;;;;21066907;28;20043;-60
2024/01/07 18:45:43;;;;;;;1.15;0.30;;;1.00;99.90;;;;;;21066564;28;20036;-61
2024/01/07 18:55:48;;;;;;;0.32;0.22;;;1.10;99.90;;;;;;21080662;28;20035;-60
2024/01/07 19:05:50;;;;;;;0.43;0.20;;;1.10;99.90;;;;;;21079670;28;20063;-61
2024/01/07 19:15:54;;;;;;;0.15;0.10;;;1.10;99.90;;;;;;21078864;28;20551;-60
2024/01/07 19:25:56;;;;;;;0.50;0.20;;;1.10;99.90;;;;;;21078161;28;20035;-60
2024/01/07 19:35:58;;;;;;;0.73;0.20;;;1.30;99.90;;;;;;21059341;28;20036;-61
2024/01/07 19:46:00;;;;;;;0.20;0.13;;;1.30;99.90;;;;;;21076272;28;20040;-61
2024/01/07 19:56:02;;;;;;;0.20;0.13;;;1.30;99.90;;;;;;21075809;28;20039;-61
2024/01/07 20:06:12;;;;;;;0.10;0.10;;;1.30;99.90;;;;;;21073316;28;20394;-61
2024/01/07 20:16:16;;;;;;;0.55;0.20;;;1.30;99.90;;;;;;21074089;28;20044;-61
2024/01/07 20:26:18;;;;;;;0.17;0.10;;;1.30;99.90;;;;;;21073518;28;20048;-61
2024/01/07 20:36:20;;;;;;;0.20;0.10;;;1.30;99.90;;;;;;21072838;28;20436;-60
2024/01/07 20:46:22;;;;;;;0.20;0.13;;;1.20;99.90;;;;;;21053484;28;20028;-61
2024/01/07 20:56:24;;;;;;;0.25;0.10;;;1.10;99.90;;;;;;21071249;28;20036;-61
2024/01/07 21:06:29;;;;;;;0.20;0.10;;;1.10;99.90;;;;;;21070921;28;20044;-61
2024/01/07 21:16:30;;;;;;;0.38;0.10;;;1.20;99.90;;;;;;21069036;28;20051;-60
2024/01/07 21:26:34;;;;;;;0.30;0.20;;;1.10;99.90;;;;;;21068837;28;20036;-61
2024/01/07 21:36:42;;;;;;;0.43;0.20;;;1.10;99.90;;;;;;21068431;28;20036;-60
2024/01/07 21:46:45;;;;;;;0.20;0.10;;;1.00;99.90;;;;;;21068091;28;20028;-61
2024/01/07 21:56:50;;;;;;;0.50;0.20;;;1.10;99.90;;;;;;21067107;28;20097;-61
2024/01/07 22:06:51;;;;;;;0.20;0.10;;;1.00;99.90;;;;;;21066656;28;20035;-60
2024/01/07 22:16:53;;;;;;;0.15;0.05;;;1.00;99.90;;;;;;21065943;28;20563;-61
2024/01/07 22:26:55;;;;;;;0.50;0.20;;;1.10;99.90;;;;;;21078235;28;20496;-61
2024/01/07 22:36:57;;;;;;;0.22;0.10;;;1.20;99.90;;;;;;21084114;28;20401;-60
2024/01/07 22:46:59;;;;;;;0.20;0.10;;;1.20;99.90;;;;;;21081774;28;20062;-61
2024/01/07 22:57:00;;;;;;;0.88;0.17;;;1.30;99.90;;;;;;21080742;28;20382;-60
2024/01/07 23:07:02;;;;;;;0.30;0.20;;;1.10;99.90;;;;;;21080141;28;20104;-60
2024/01/07 23:17:04;;;;;;;0.17;0.10;;;1.20;99.90;;;;;;21079081;28;20044;-61
2024/01/07 23:27:09;;;;;;;1.25;0.10;;;1.30;99.90;;;;;;21078618;28;20120;-61
2024/01/07 23:37:11;;;;;;;0.28;0.10;;;1.30;99.90;;;;;;21077655;28;20032;-61
2024/01/07 23:47:12;;;;;;;0.20;0.13;;;1.40;99.90;;;;;;21076787;28;20089;-62
2024/01/07 23:57:14;;;;;;;0.10;0.10;;;1.30;99.90;;;;;;21076001;28;20027;-61
